createdAt,value
2023-01-29T00:00:21.809Z,-2.21
2023-01-29T00:02:48.288Z,-2.23
2023-01-29T00:05:27.058Z,-2.21
2023-01-29T00:07:54.984Z,-2.21
2023-01-29T00:10:21.327Z,-2.23
2023-01-29T00:12:47.665Z,-2.21
2023-01-29T00:15:14.005Z,-2.25
2023-01-29T00:17:40.347Z,-2.32
2023-01-29T00:20:06.872Z,-2.28
2023-01-29T00:22:33.262Z,-2.24
2023-01-29T00:24:59.747Z,-2.24
2023-01-29T00:27:26.127Z,-2.24
2023-01-29T00:30:09.558Z,-2.28
2023-01-29T00:32:36.208Z,-2.27
2023-01-29T00:35:02.759Z,-2.22
2023-01-29T00:37:29.179Z,-2.23
2023-01-29T00:39:55.573Z,-2.22
2023-01-29T00:42:40.640Z,-2.29
2023-01-29T00:45:07.463Z,-2.27
2023-01-29T00:47:33.991Z,-2.25
2023-01-29T00:50:01.545Z,-2.24
2023-01-29T00:52:27.960Z,-2.25
2023-01-29T00:54:58.955Z,-2.21
2023-01-29T00:57:26.821Z,-2.24
2023-01-29T01:02:48.068Z,-2.23
2023-01-29T01:05:18.126Z,-2.22
2023-01-29T01:07:45.573Z,-2.23
2023-01-29T01:10:22.771Z,-2.25
2023-01-29T01:12:50.850Z,-2.26
2023-01-29T01:15:17.728Z,-2.25
2023-01-29T01:17:44.156Z,-2.24
2023-01-29T01:20:11.229Z,-2.26
2023-01-29T01:22:37.589Z,-2.26
2023-01-29T01:25:04.098Z,-2.28
2023-01-29T01:27:30.650Z,-2.40
2023-01-29T01:29:57.062Z,-2.30
2023-01-29T01:32:23.602Z,-2.25
2023-01-29T01:34:51.690Z,-2.29
2023-01-29T01:37:19.065Z,-2.29
2023-01-29T01:39:48.883Z,-2.29
2023-01-29T01:42:15.364Z,-2.27
2023-01-29T01:44:53.889Z,-2.28
2023-01-29T01:47:35.496Z,-2.25
2023-01-29T01:50:08.435Z,-2.28
2023-01-29T01:52:36.549Z,-2.30
2023-01-29T01:55:03.408Z,-2.38
2023-01-29T01:57:31.288Z,-2.35
2023-01-29T02:00:11.095Z,-2.42
2023-01-29T02:03:00.684Z,-2.36
2023-01-29T02:05:46.179Z,-2.38
2023-01-29T02:08:31.582Z,-2.39
2023-01-29T02:10:58.062Z,-2.47
2023-01-29T02:13:24.641Z,-2.47
2023-01-29T02:15:51.090Z,-2.48
2023-01-29T02:18:19.210Z,-2.55
2023-01-29T02:20:50.010Z,-2.61
2023-01-29T02:23:34.798Z,-2.59
2023-01-29T02:26:20.731Z,-2.66
2023-01-29T02:29:22.643Z,-2.69
2023-01-29T02:31:54.677Z,-2.70
2023-01-29T02:34:27.317Z,-2.73
2023-01-29T02:37:02.807Z,-2.76
2023-01-29T02:39:34.156Z,-2.87
2023-01-29T02:42:19.150Z,-2.86
2023-01-29T02:44:52.180Z,-2.91
2023-01-29T02:47:21.538Z,-2.90
2023-01-29T02:49:51.248Z,-2.89
2023-01-29T02:52:27.767Z,-2.96
2023-01-29T02:55:14.399Z,-3.01
2023-01-29T02:57:42.193Z,-3.05
2023-01-29T03:00:17.822Z,-3.09
2023-01-29T03:02:50.350Z,-3.09
2023-01-29T03:05:18.182Z,-3.14
2023-01-29T03:07:52.072Z,-3.17
2023-01-29T03:10:21.752Z,-3.20
2023-01-29T03:13:02.961Z,-3.23
2023-01-29T03:15:38.616Z,-3.25
2023-01-29T03:18:17.619Z,-3.27
2023-01-29T03:20:48.117Z,-3.26
2023-01-29T03:23:23.753Z,-3.31
2023-01-29T03:26:12.259Z,-3.32
2023-01-29T03:28:58.636Z,-3.38
2023-01-29T03:31:45.065Z,-3.42
2023-01-29T03:34:16.625Z,-3.42
2023-01-29T03:36:56.124Z,-3.42
2023-01-29T03:39:28.393Z,-3.43
2023-01-29T03:41:54.775Z,-3.47
2023-01-29T03:44:28.605Z,-3.47
2023-01-29T03:47:04.799Z,-3.50
2023-01-29T03:49:39.170Z,-3.47
2023-01-29T03:52:08.608Z,-3.48
2023-01-29T03:54:44.589Z,-3.51
2023-01-29T03:57:15.516Z,-3.57
2023-01-29T04:00:15.126Z,-3.56
2023-01-29T04:02:55.484Z,-3.58
2023-01-29T04:05:24.458Z,-3.58
2023-01-29T04:07:54.294Z,-3.63
2023-01-29T04:10:24.809Z,-3.65
2023-01-29T04:12:55.335Z,-3.62
2023-01-29T04:15:22.606Z,-3.67
2023-01-29T04:17:51.759Z,-3.63
2023-01-29T04:20:18.609Z,-3.66
2023-01-29T04:22:49.876Z,-3.65
2023-01-29T04:25:17.915Z,-3.61
2023-01-29T04:28:02.531Z,-3.65
2023-01-29T04:30:35.899Z,-3.68
2023-01-29T04:33:12.629Z,-3.66
2023-01-29T04:35:46.371Z,-3.63
2023-01-29T04:38:33.160Z,-3.65
2023-01-29T04:41:11.355Z,-3.65
2023-01-29T04:43:43.543Z,-3.67
2023-01-29T04:46:13.062Z,-3.67
2023-01-29T04:48:47.736Z,-3.68
2023-01-29T04:51:25.053Z,-3.69
2023-01-29T04:53:57.431Z,-3.74
2023-01-29T04:56:29.668Z,-3.78
2023-01-29T04:59:00.909Z,-3.79
2023-01-29T05:01:30.227Z,-3.76
2023-01-29T05:03:57.457Z,-3.76
2023-01-29T05:06:25.084Z,-3.76
2023-01-29T05:08:53.871Z,-3.78
2023-01-29T05:11:20.442Z,-3.81
2023-01-29T05:13:48.616Z,-3.81
2023-01-29T05:16:24.414Z,-3.87
2023-01-29T05:18:51.064Z,-3.82
2023-01-29T05:21:17.584Z,-3.88
2023-01-29T05:23:53.331Z,-3.93
2023-01-29T05:26:39.822Z,-3.88
2023-01-29T05:29:06.189Z,-3.89
2023-01-29T05:31:32.676Z,-3.86
2023-01-29T05:33:59.047Z,-3.91
2023-01-29T05:36:26.862Z,-3.87
2023-01-29T05:38:53.205Z,-3.87
2023-01-29T05:41:19.944Z,-3.88
2023-01-29T05:43:46.635Z,-3.91
2023-01-29T05:46:13.028Z,-3.92
2023-01-29T05:48:39.423Z,-3.89
2023-01-29T05:51:05.840Z,-3.89
2023-01-29T05:53:32.590Z,-3.92
2023-01-29T05:56:01.163Z,-3.91
2023-01-29T05:58:27.615Z,-3.87
2023-01-29T06:00:53.957Z,-3.80
2023-01-29T06:03:20.392Z,-3.79
2023-01-29T06:05:46.872Z,-3.71
2023-01-29T06:08:13.397Z,-3.71
2023-01-29T06:10:39.878Z,-3.65
2023-01-29T06:13:07.033Z,-3.66
2023-01-29T06:15:33.393Z,-3.65
2023-01-29T06:17:59.879Z,-3.62
2023-01-29T06:20:26.227Z,-3.63
2023-01-29T06:22:52.565Z,-3.68
2023-01-29T06:25:18.931Z,-3.71
2023-01-29T06:27:45.343Z,-3.61
2023-01-29T06:30:11.949Z,-3.57
2023-01-29T06:32:38.364Z,-3.57
2023-01-29T06:35:04.958Z,-3.53
2023-01-29T06:37:31.360Z,-3.51
2023-01-29T06:39:57.724Z,-3.53
2023-01-29T06:42:27.952Z,-3.54
2023-01-29T06:44:57.619Z,-3.47
2023-01-29T06:47:24.190Z,-3.43
2023-01-29T06:49:50.656Z,-3.41
2023-01-29T06:52:17.016Z,-3.43
2023-01-29T06:54:43.395Z,-3.49
2023-01-29T06:57:09.825Z,-3.43
2023-01-29T06:59:36.187Z,-3.38
2023-01-29T07:02:03.602Z,-3.39
2023-01-29T07:04:30.094Z,-3.36
2023-01-29T07:06:56.468Z,-3.36
2023-01-29T07:09:22.793Z,-3.33
2023-01-29T07:11:49.343Z,-3.28
2023-01-29T07:14:15.660Z,-3.27
2023-01-29T07:16:42.075Z,-3.28
2023-01-29T07:19:08.778Z,-3.26
2023-01-29T07:21:37.806Z,-3.23
2023-01-29T07:24:04.330Z,-3.23
2023-01-29T07:26:30.813Z,-3.26
2023-01-29T07:28:57.131Z,-3.21
2023-01-29T07:31:23.520Z,-3.18
2023-01-29T07:33:49.968Z,-3.19
2023-01-29T07:36:16.597Z,-3.19
2023-01-29T07:38:43.036Z,-3.20
2023-01-29T07:41:11.096Z,-3.24
2023-01-29T07:43:37.540Z,-3.18
2023-01-29T07:46:04.517Z,-3.12
2023-01-29T07:48:31.030Z,-3.11
2023-01-29T07:50:57.475Z,-3.04
2023-01-29T07:53:23.890Z,-3.05
2023-01-29T07:55:50.484Z,-2.98
2023-01-29T07:58:17.047Z,-2.95
2023-01-29T08:00:43.761Z,-2.94
2023-01-29T08:03:12.126Z,-2.90
2023-01-29T08:05:38.865Z,-2.84
2023-01-29T08:08:07.249Z,-2.84
2023-01-29T08:10:38.491Z,-2.83
2023-01-29T08:13:05.067Z,-2.82
2023-01-29T08:15:31.816Z,-2.86
2023-01-29T08:17:58.612Z,-2.76
2023-01-29T08:20:25.589Z,-2.71
2023-01-29T08:22:59.366Z,-2.74
2023-01-29T08:25:26.039Z,-2.69
2023-01-29T08:27:52.558Z,-2.63
2023-01-29T08:30:18.911Z,-2.64
2023-01-29T08:32:45.302Z,-2.67
2023-01-29T08:35:11.630Z,-2.65
2023-01-29T08:37:37.969Z,-2.68
2023-01-29T08:40:04.579Z,-2.64
2023-01-29T08:42:30.932Z,-2.58
2023-01-29T08:44:57.246Z,-2.66
2023-01-29T08:47:23.763Z,-2.59
2023-01-29T08:49:50.099Z,-2.59
2023-01-29T08:52:16.443Z,-2.53
2023-01-29T08:54:42.833Z,-2.52
2023-01-29T08:57:09.158Z,-2.46
2023-01-29T08:59:35.482Z,-2.49
2023-01-29T09:02:01.902Z,-2.48
2023-01-29T09:04:28.255Z,-2.48
2023-01-29T09:06:54.588Z,-2.46
2023-01-29T09:09:20.951Z,-2.34
2023-01-29T09:11:47.275Z,-2.27
2023-01-29T09:14:14.538Z,-2.23
2023-01-29T09:16:41.174Z,-2.25
2023-01-29T09:19:08.311Z,-2.18
2023-01-29T09:21:34.694Z,-2.23
2023-01-29T09:24:01.053Z,-2.27
2023-01-29T09:26:27.488Z,-2.24
2023-01-29T09:28:53.908Z,-2.23
2023-01-29T09:31:20.392Z,-2.26
2023-01-29T09:33:46.879Z,-2.24
2023-01-29T09:36:13.285Z,-2.21
2023-01-29T09:38:39.657Z,-2.22
2023-01-29T09:41:09.019Z,-2.25
2023-01-29T09:43:53.155Z,-2.13
2023-01-29T09:46:28.751Z,-2.04
2023-01-29T09:49:01.958Z,-2.10
2023-01-29T09:51:30.543Z,-2.05
2023-01-29T09:54:12.801Z,-2.00
2023-01-29T09:56:39.150Z,-1.98
2023-01-29T09:59:05.540Z,-1.96
2023-01-29T10:01:34.989Z,-1.93
2023-01-29T10:04:07.293Z,-1.84
2023-01-29T10:06:43.620Z,-1.83
2023-01-29T10:09:09.982Z,-1.83
2023-01-29T10:11:57.937Z,-1.79
2023-01-29T10:14:50.730Z,-1.75
2023-01-29T10:17:39.595Z,-1.69
2023-01-29T10:20:16.758Z,-1.65
2023-01-29T10:22:43.093Z,-1.67
2023-01-29T10:25:20.667Z,-1.79
2023-01-29T10:27:51.946Z,-1.73
2023-01-29T10:30:29.815Z,-1.65
2023-01-29T10:32:58.367Z,-1.62
2023-01-29T10:35:28.139Z,-1.61
2023-01-29T10:37:54.901Z,-1.64
2023-01-29T10:40:24.075Z,-1.68
2023-01-29T10:43:19.994Z,-1.72
2023-01-29T10:45:50.518Z,-1.73
2023-01-29T10:48:35.311Z,-1.75
2023-01-29T10:51:07.126Z,-1.68
2023-01-29T10:53:53.365Z,-1.74
2023-01-29T10:56:23.236Z,-1.70
2023-01-29T10:58:50.195Z,-1.73
2023-01-29T11:01:16.698Z,-1.68
2023-01-29T11:03:43.231Z,-1.72
2023-01-29T11:06:12.884Z,-1.63
2023-01-29T11:08:58.956Z,-1.55
2023-01-29T11:11:31.339Z,-1.79
2023-01-29T11:14:00.205Z,-1.72
2023-01-29T11:16:29.903Z,-1.63
2023-01-29T11:18:57.663Z,-1.57
2023-01-29T11:21:25.103Z,-1.62
2023-01-29T11:24:04.887Z,-1.55
2023-01-29T11:26:34.285Z,-1.45
2023-01-29T11:29:00.635Z,-1.50
2023-01-29T11:31:29.090Z,-1.39
2023-01-29T11:34:03.507Z,-1.38
2023-01-29T11:36:38.381Z,-1.32
2023-01-29T11:39:13.707Z,-1.29
2023-01-29T11:42:08.313Z,-1.36
2023-01-29T11:44:38.761Z,-1.28
2023-01-29T11:47:12.861Z,-1.24
2023-01-29T11:49:40.193Z,-1.20
2023-01-29T11:52:08.987Z,-1.22
2023-01-29T11:54:41.507Z,-1.15
2023-01-29T11:57:20.171Z,-1.15
2023-01-29T11:59:49.982Z,-1.15
2023-01-29T12:02:23.632Z,-1.15
2023-01-29T12:04:50.512Z,-1.16
2023-01-29T12:07:18.150Z,-1.11
2023-01-29T12:09:52.762Z,-1.05
2023-01-29T12:12:29.955Z,-1.05
2023-01-29T12:15:16.548Z,-1.05
2023-01-29T12:17:45.337Z,-1.07
2023-01-29T12:20:15.186Z,-1.02
2023-01-29T12:23:00.900Z,-0.99
2023-01-29T12:25:33.413Z,-0.93
2023-01-29T12:28:19.151Z,-0.85
2023-01-29T12:31:03.825Z,-0.90
2023-01-29T12:33:44.106Z,-0.90
2023-01-29T12:36:13.305Z,-0.84
2023-01-29T12:38:41.139Z,-0.77
2023-01-29T12:41:21.550Z,-0.77
2023-01-29T12:43:50.147Z,-0.86
2023-01-29T12:46:26.340Z,-0.77
2023-01-29T12:48:54.648Z,-0.67
2023-01-29T12:51:25.405Z,-0.62
2023-01-29T12:54:06.937Z,-0.56
2023-01-29T12:56:37.051Z,-0.58
2023-01-29T12:59:23.665Z,-0.58
2023-01-29T13:01:58.337Z,-0.50
2023-01-29T13:04:35.289Z,-0.45
2023-01-29T13:07:11.289Z,-0.49
2023-01-29T13:09:38.979Z,-0.43
2023-01-29T13:12:11.353Z,-0.35
2023-01-29T13:14:54.197Z,-0.37
2023-01-29T13:17:20.524Z,-0.34
2023-01-29T13:19:49.627Z,-0.29
2023-01-29T13:22:24.455Z,-0.31
2023-01-29T13:25:03.601Z,-0.33
2023-01-29T13:27:33.186Z,-0.38
2023-01-29T13:29:59.926Z,-0.31
2023-01-29T13:32:30.744Z,-0.24
2023-01-29T13:35:03.151Z,-0.25
2023-01-29T13:37:32.534Z,-0.22
2023-01-29T13:40:00.093Z,-0.22
2023-01-29T13:42:37.319Z,-0.15
2023-01-29T13:45:05.428Z,-0.18
2023-01-29T13:47:33.574Z,-0.25
2023-01-29T13:50:01.990Z,-0.26
2023-01-29T13:53:02.086Z,-0.34
2023-01-29T13:55:31.483Z,-0.39
2023-01-29T13:58:01.821Z,-0.39
2023-01-29T14:00:34.253Z,-0.37
2023-01-29T14:03:00.626Z,-0.40
2023-01-29T14:05:29.860Z,-0.39
2023-01-29T14:08:02.650Z,-0.46
2023-01-29T14:10:30.406Z,-0.47
2023-01-29T14:13:15.601Z,-0.52
2023-01-29T14:15:41.934Z,-0.64
2023-01-29T14:18:08.395Z,-0.58
2023-01-29T14:20:47.042Z,-0.58
2023-01-29T14:23:19.572Z,-0.61
2023-01-29T14:25:46.169Z,-0.61
2023-01-29T14:28:20.019Z,-0.65
2023-01-29T14:30:48.031Z,-0.66
2023-01-29T14:33:31.247Z,-0.61
2023-01-29T14:35:57.990Z,-0.61
2023-01-29T14:38:26.336Z,-0.61
2023-01-29T14:41:02.313Z,-0.64
2023-01-29T14:43:28.847Z,-0.62
2023-01-29T14:45:55.228Z,-0.60
2023-01-29T14:48:46.469Z,-0.59
2023-01-29T14:51:14.234Z,-0.68
2023-01-29T14:53:40.612Z,-0.66
2023-01-29T14:56:09.990Z,-0.71
2023-01-29T14:58:38.485Z,-0.72
2023-01-29T15:01:15.786Z,-0.70
2023-01-29T15:03:45.195Z,-0.77
2023-01-29T15:06:16.301Z,-0.80
2023-01-29T15:09:11.932Z,-0.80
2023-01-29T15:12:00.522Z,-0.82
2023-01-29T15:14:33.881Z,-0.85
2023-01-29T15:17:17.408Z,-0.79
2023-01-29T15:19:48.496Z,-0.78
2023-01-29T15:22:19.082Z,-0.81
2023-01-29T15:24:46.731Z,-0.77
2023-01-29T15:27:18.753Z,-0.76
2023-01-29T15:29:48.610Z,-0.83
2023-01-29T15:32:18.002Z,-0.79
2023-01-29T15:34:44.382Z,-0.79
2023-01-29T15:37:31.070Z,-0.80
2023-01-29T15:39:58.459Z,-0.77
2023-01-29T15:42:26.839Z,-0.86
2023-01-29T15:44:56.230Z,-0.84
2023-01-29T15:47:24.985Z,-0.82
2023-01-29T15:49:52.087Z,-0.89
2023-01-29T15:52:23.575Z,-0.83
2023-01-29T15:54:50.790Z,-0.88
2023-01-29T15:57:29.385Z,-0.87
2023-01-29T15:59:57.731Z,-0.93
2023-01-29T16:02:40.459Z,-0.96
2023-01-29T16:05:24.306Z,-1.04
2023-01-29T16:07:51.720Z,-1.06
2023-01-29T16:10:23.055Z,-1.09
2023-01-29T16:12:53.237Z,-1.12
2023-01-29T16:15:33.584Z,-1.12
2023-01-29T16:18:00.723Z,-1.21
2023-01-29T16:20:31.165Z,-1.16
2023-01-29T16:22:58.132Z,-1.25
2023-01-29T16:25:24.713Z,-1.21
2023-01-29T16:27:51.602Z,-1.20
2023-01-29T16:30:18.320Z,-1.17
2023-01-29T16:32:44.883Z,-1.17
2023-01-29T16:35:17.711Z,-1.15
2023-01-29T16:37:47.937Z,-1.12
2023-01-29T16:40:16.249Z,-1.09
2023-01-29T16:42:42.768Z,-1.05
2023-01-29T16:45:29.478Z,-1.04
2023-01-29T16:48:20.496Z,-1.06
2023-01-29T16:50:55.141Z,-1.09
2023-01-29T16:53:24.569Z,-1.16
2023-01-29T16:55:52.423Z,-1.12
2023-01-29T16:58:24.927Z,-1.12
2023-01-29T17:00:56.754Z,-1.12
2023-01-29T17:03:25.586Z,-1.20
2023-01-29T17:05:52.521Z,-1.10
2023-01-29T17:08:32.586Z,-1.14
2023-01-29T17:10:59.681Z,-1.11
2023-01-29T17:13:34.230Z,-1.11
2023-01-29T17:16:02.880Z,-1.12
2023-01-29T17:18:29.739Z,-1.06
2023-01-29T17:20:56.189Z,-1.05
2023-01-29T17:23:22.579Z,-1.05
2023-01-29T17:25:48.988Z,-1.04
2023-01-29T17:28:16.835Z,-1.03
2023-01-29T17:30:46.450Z,-1.05
2023-01-29T17:33:21.725Z,-0.99
2023-01-29T17:35:48.540Z,-1.04
2023-01-29T17:38:25.614Z,-0.98
2023-01-29T17:41:13.898Z,-1.01
2023-01-29T17:43:40.436Z,-1.04
2023-01-29T17:46:09.907Z,-0.99
2023-01-29T17:48:36.321Z,-0.95
2023-01-29T17:51:03.716Z,-0.97
2023-01-29T17:53:44.124Z,-0.99
2023-01-29T17:56:27.410Z,-1.00
2023-01-29T17:58:53.947Z,-0.98
2023-01-29T18:01:20.446Z,-1.01
2023-01-29T18:03:46.867Z,-0.98
2023-01-29T18:06:20.201Z,-0.98
2023-01-29T18:08:46.634Z,-1.04
2023-01-29T18:11:13.279Z,-0.98
2023-01-29T18:13:41.912Z,-1.00
2023-01-29T18:16:08.362Z,-1.01
2023-01-29T18:18:35.023Z,-0.96
2023-01-29T18:21:01.397Z,-0.96
2023-01-29T18:23:29.502Z,-1.03
2023-01-29T18:25:57.671Z,-0.99
2023-01-29T18:28:24.819Z,-1.03
2023-01-29T18:30:51.293Z,-1.04
2023-01-29T18:33:18.067Z,-1.05
2023-01-29T18:35:45.056Z,-1.06
2023-01-29T18:38:11.566Z,-1.05
2023-01-29T18:40:37.907Z,-1.08
2023-01-29T18:43:04.294Z,-1.12
2023-01-29T18:45:30.807Z,-1.09
2023-01-29T18:47:57.710Z,-1.12
2023-01-29T18:50:25.040Z,-1.17
2023-01-29T18:52:51.550Z,-1.20
2023-01-29T18:55:18.207Z,-1.27
2023-01-29T18:58:27.151Z,-1.34
2023-01-29T19:00:31.064Z,-1.36
2023-01-29T19:02:57.447Z,-1.34
2023-01-29T19:05:25.536Z,-1.42
2023-01-29T19:07:52.517Z,-1.38
2023-01-29T19:10:19.170Z,-1.47
2023-01-29T19:12:45.634Z,-1.45
2023-01-29T19:15:12.136Z,-1.47
2023-01-29T19:17:38.940Z,-1.46
2023-01-29T19:20:05.497Z,-1.51
2023-01-29T19:22:32.443Z,-1.48
2023-01-29T19:24:58.941Z,-1.53
2023-01-29T19:27:30.221Z,-1.50
2023-01-29T19:29:59.824Z,-1.53
2023-01-29T19:32:28.067Z,-1.59
2023-01-29T19:34:54.805Z,-1.65
2023-01-29T19:37:21.215Z,-1.61
2023-01-29T19:39:47.559Z,-1.67
2023-01-29T19:42:13.940Z,-1.66
2023-01-29T19:44:40.421Z,-1.64
2023-01-29T19:47:06.899Z,-1.62
2023-01-29T19:49:34.264Z,-1.58
2023-01-29T19:52:01.316Z,-1.59
2023-01-29T19:54:27.930Z,-1.63
2023-01-29T19:56:54.530Z,-1.64
2023-01-29T19:59:21.110Z,-1.60
2023-01-29T20:01:47.604Z,-1.59
2023-01-29T20:04:14.107Z,-1.64
2023-01-29T20:06:40.620Z,-1.65
2023-01-29T20:09:07.448Z,-1.71
2023-01-29T20:11:34.364Z,-1.61
2023-01-29T20:14:00.820Z,-1.59
2023-01-29T20:16:27.378Z,-1.67
2023-01-29T20:18:54.084Z,-1.64
2023-01-29T20:21:22.089Z,-1.70
2023-01-29T20:23:50.788Z,-1.77
2023-01-29T20:26:17.444Z,-1.73
2023-01-29T20:28:45.550Z,-1.78
2023-01-29T20:31:12.039Z,-1.79
2023-01-29T20:33:39.667Z,-1.90
2023-01-29T20:36:07.305Z,-1.98
2023-01-29T20:38:34.665Z,-1.96
2023-01-29T20:41:05.252Z,-2.07
2023-01-29T20:43:32.001Z,-2.03
2023-01-29T20:45:58.594Z,-2.13
2023-01-29T20:48:25.170Z,-2.12
2023-01-29T20:50:51.603Z,-2.13
2023-01-29T20:53:18.039Z,-2.15
2023-01-29T20:55:44.923Z,-2.11
2023-01-29T20:58:11.438Z,-2.17
2023-01-29T21:00:38.917Z,-2.16
2023-01-29T21:03:05.364Z,-2.15
2023-01-29T21:05:32.363Z,-2.18
2023-01-29T21:07:58.797Z,-2.20
2023-01-29T21:10:25.358Z,-2.24
2023-01-29T21:12:51.757Z,-2.22
2023-01-29T21:15:18.194Z,-2.29
2023-01-29T21:17:44.633Z,-2.28
2023-01-29T21:20:11.376Z,-2.33
2023-01-29T21:22:37.785Z,-2.34
2023-01-29T21:25:04.369Z,-2.29
2023-01-29T21:27:30.797Z,-2.32
2023-01-29T21:29:57.435Z,-2.29
2023-01-29T21:32:23.997Z,-2.32
2023-01-29T21:34:52.622Z,-2.32
2023-01-29T21:37:19.156Z,-2.31
2023-01-29T21:39:46.134Z,-2.35
2023-01-29T21:42:31.281Z,-2.37
2023-01-29T21:44:57.782Z,-2.38
2023-01-29T21:47:24.299Z,-2.34
2023-01-29T21:49:50.763Z,-2.38
2023-01-29T21:52:17.227Z,-2.38
2023-01-29T21:54:49.052Z,-2.40
2023-01-29T21:57:16.200Z,-2.42
2023-01-29T21:59:43.020Z,-2.45
2023-01-29T22:02:15.129Z,-2.38
2023-01-29T22:04:42.326Z,-2.42
2023-01-29T22:07:09.834Z,-2.37
2023-01-29T22:09:36.425Z,-2.35
2023-01-29T22:12:03.277Z,-2.33
2023-01-29T22:14:29.859Z,-2.36
2023-01-29T22:16:56.328Z,-2.31
2023-01-29T22:19:23.596Z,-2.30
2023-01-29T22:21:51.400Z,-2.31
2023-01-29T22:24:18.090Z,-2.30
2023-01-29T22:26:44.511Z,-2.27
2023-01-29T22:29:14.659Z,-2.29
2023-01-29T22:31:40.992Z,-2.30
2023-01-29T22:34:07.399Z,-2.28
2023-01-29T22:36:33.789Z,-2.28
2023-01-29T22:39:00.257Z,-2.31
2023-01-29T22:41:26.593Z,-2.22
2023-01-29T22:43:53.082Z,-2.19
2023-01-29T22:46:19.765Z,-2.27
2023-01-29T22:48:46.320Z,-2.28
2023-01-29T22:51:13.871Z,-2.26
2023-01-29T22:53:41.733Z,-2.31
2023-01-29T22:56:08.707Z,-2.29
2023-01-29T22:58:35.286Z,-2.29
2023-01-29T23:01:01.990Z,-2.27
2023-01-29T23:03:28.537Z,-2.27
2023-01-29T23:05:55.029Z,-2.31
2023-01-29T23:08:21.501Z,-2.23
2023-01-29T23:10:47.847Z,-2.23
2023-01-29T23:13:14.213Z,-2.29
2023-01-29T23:15:40.675Z,-2.22
2023-01-29T23:18:07.253Z,-2.23
2023-01-29T23:20:33.660Z,-2.21
2023-01-29T23:23:00.150Z,-2.20
2023-01-29T23:25:45.231Z,-2.20
2023-01-29T23:28:11.730Z,-2.17
2023-01-29T23:30:38.256Z,-2.13
2023-01-29T23:33:04.897Z,-2.15
2023-01-29T23:35:31.356Z,-2.12
2023-01-29T23:37:57.888Z,-2.08
2023-01-29T23:40:24.330Z,-2.10
2023-01-29T23:42:50.926Z,-2.02
2023-01-29T23:45:17.295Z,-2.00
2023-01-29T23:47:43.702Z,-2.00
2023-01-29T23:50:10.480Z,-2.02
2023-01-29T23:52:36.896Z,-1.98
2023-01-29T23:55:03.560Z,-1.93
2023-01-29T23:57:30.008Z,-2.00
2023-01-29T23:59:56.372Z,-1.91
